createdAt,value
2018-01-24T21:25:22.069Z,29.50
2018-01-24T21:27:50.801Z,30.60
2018-01-24T21:30:22.599Z,30.60
2018-01-24T21:33:02.122Z,30.90
2018-01-24T21:35:42.513Z,31.10
2018-01-24T21:38:10.290Z,31.40
2018-01-24T21:40:44.413Z,31.80
2018-01-24T21:43:12.155Z,31.80
2018-01-24T21:45:40.623Z,32.00
2018-01-24T21:48:08.336Z,32.00
2018-01-24T21:50:36.048Z,32.20
2018-01-24T21:53:04.584Z,32.30
2018-01-24T21:55:32.310Z,32.30
2018-01-24T21:58:00.792Z,32.40
2018-01-24T22:00:28.532Z,32.40
2018-01-24T22:02:56.231Z,32.50
2018-01-24T22:05:23.948Z,32.40
2018-01-24T22:07:51.642Z,32.40
2018-01-24T22:10:19.395Z,32.50
2018-01-24T22:12:47.904Z,32.50
2018-01-24T22:15:15.584Z,32.50
2018-01-24T22:17:43.299Z,32.60
2018-01-24T22:20:11.799Z,32.80
2018-01-24T22:22:39.468Z,32.60
2018-01-24T22:25:07.129Z,32.80
2018-01-24T22:27:34.862Z,33.50
2018-01-24T22:30:03.370Z,32.90
2018-01-24T22:32:31.038Z,32.90
2018-01-24T22:34:58.716Z,32.90
2018-01-24T22:37:26.393Z,33.00
2018-01-24T22:39:54.108Z,33.00
2018-01-24T22:42:21.769Z,33.10
2018-01-24T22:44:49.461Z,33.10
2018-01-24T22:47:17.325Z,33.20
2018-01-24T22:49:44.982Z,33.20
2018-01-24T22:52:12.630Z,33.20
2018-01-24T22:54:40.390Z,33.20
2018-01-24T22:57:08.097Z,33.30
2018-01-24T22:59:35.805Z,33.20
2018-01-24T23:02:03.477Z,33.30
2018-01-24T23:04:31.184Z,33.30
2018-01-24T23:06:58.857Z,33.40
2018-01-24T23:09:27.267Z,33.40
2018-01-24T23:11:54.950Z,33.40
2018-01-24T23:14:22.586Z,33.40
2018-01-24T23:16:50.247Z,33.40
2018-01-24T23:19:17.898Z,33.40
2018-01-24T23:21:45.596Z,33.40
2018-01-24T23:24:13.278Z,33.50
2018-01-24T23:26:40.945Z,33.50
2018-01-24T23:29:08.617Z,33.60
2018-01-24T23:31:37.062Z,34.40
2018-01-24T23:34:04.733Z,33.70
2018-01-24T23:36:32.402Z,33.70
2018-01-24T23:39:00.981Z,33.80
2018-01-24T23:41:28.637Z,33.80
2018-01-24T23:43:56.298Z,33.80
2018-01-24T23:46:23.961Z,33.90
2018-01-24T23:48:51.622Z,33.90
2018-01-24T23:51:19.301Z,34.00
2018-01-24T23:53:46.957Z,34.00
2018-01-24T23:56:14.649Z,34.00
2018-01-24T23:58:42.326Z,34.00
